sensor_id;sensor_type;location;lat;lon;timestamp;P1;durP1;ratioP1;P2;durP2;ratioP2
14982;SDS011;7587;51.494;11.930;2022-07-12T00:02:03;2.38;;;2.28;;
14982;SDS011;7587;51.494;11.930;2022-07-12T00:04:29;2.53;;;2.30;;
14982;SDS011;7587;51.494;11.930;2022-07-12T00:06:56;2.47;;;2.22;;
14982;SDS011;7587;51.494;11.930;2022-07-12T00:09:22;2.33;;;2.13;;
14982;SDS011;7587;51.494;11.930;2022-07-12T00:11:49;2.75;;;2.38;;
14982;SDS011;7587;51.494;11.930;2022-07-12T00:14:15;2.42;;;2.22;;
14982;SDS011;7587;51.494;11.930;2022-07-12T00:16:42;2.60;;;2.40;;
14982;SDS011;7587;51.494;11.930;2022-07-12T00:19:09;3.28;;;2.38;;
14982;SDS011;7587;51.494;11.930;2022-07-12T00:21:36;2.80;;;2.60;;
14982;SDS011;7587;51.494;11.930;2022-07-12T00:24:02;2.28;;;2.17;;
14982;SDS011;7587;51.494;11.930;2022-07-12T00:26:29;3.78;;;2.33;;
14982;SDS011;7587;51.494;11.930;2022-07-12T00:28:55;2.75;;;2.55;;
14982;SDS011;7587;51.494;11.930;2022-07-12T00:31:22;2.50;;;2.30;;
14982;SDS011;7587;51.494;11.930;2022-07-12T00:33:49;2.80;;;2.60;;
14982;SDS011;7587;51.494;11.930;2022-07-12T00:36:16;2.60;;;2.42;;
14982;SDS011;7587;51.494;11.930;2022-07-12T00:38:44;2.70;;;2.50;;
14982;SDS011;7587;51.494;11.930;2022-07-12T00:41:10;2.67;;;2.47;;
14982;SDS011;7587;51.494;11.930;2022-07-12T00:43:36;2.60;;;2.40;;
14982;SDS011;7587;51.494;11.930;2022-07-12T00:46:03;2.90;;;2.70;;
14982;SDS011;7587;51.494;11.930;2022-07-12T00:48:30;2.42;;;2.33;;
14982;SDS011;7587;51.494;11.930;2022-07-12T00:50:57;3.55;;;2.33;;
14982;SDS011;7587;51.494;11.930;2022-07-12T00:53:26;2.67;;;2.47;;
14982;SDS011;7587;51.494;11.930;2022-07-12T00:55:52;2.30;;;2.20;;
14982;SDS011;7587;51.494;11.930;2022-07-12T00:58:20;2.33;;;2.17;;
14982;SDS011;7587;51.494;11.930;2022-07-12T01:00:48;2.95;;;2.70;;
14982;SDS011;7587;51.494;11.930;2022-07-12T01:03:14;2.80;;;2.60;;
14982;SDS011;7587;51.494;11.930;2022-07-12T01:05:41;2.53;;;2.28;;
14982;SDS011;7587;51.494;11.930;2022-07-12T01:08:07;2.80;;;2.60;;
14982;SDS011;7587;51.494;11.930;2022-07-12T01:10:35;2.58;;;2.47;;
14982;SDS011;7587;51.494;11.930;2022-07-12T01:13:09;3.47;;;2.33;;
14982;SDS011;7587;51.494;11.930;2022-07-12T01:15:35;3.08;;;2.67;;
14982;SDS011;7587;51.494;11.930;2022-07-12T01:18:02;2.50;;;2.30;;
14982;SDS011;7587;51.494;11.930;2022-07-12T01:20:30;2.55;;;2.35;;
14982;SDS011;7587;51.494;11.930;2022-07-12T01:22:59;2.60;;;2.40;;
14982;SDS011;7587;51.494;11.930;2022-07-12T01:25:25;2.72;;;2.53;;
14982;SDS011;7587;51.494;11.930;2022-07-12T01:27:52;4.47;;;2.53;;
14982;SDS011;7587;51.494;11.930;2022-07-12T01:30:19;2.38;;;2.17;;
14982;SDS011;7587;51.494;11.930;2022-07-12T01:32:45;2.75;;;2.30;;
14982;SDS011;7587;51.494;11.930;2022-07-12T01:35:12;2.60;;;2.40;;
14982;SDS011;7587;51.494;11.930;2022-07-12T01:37:40;3.70;;;2.60;;
14982;SDS011;7587;51.494;11.930;2022-07-12T01:40:09;3.05;;;2.78;;
14982;SDS011;7587;51.494;11.930;2022-07-12T01:42:36;2.67;;;2.45;;
14982;SDS011;7587;51.494;11.930;2022-07-12T01:45:04;2.72;;;2.53;;
14982;SDS011;7587;51.494;11.930;2022-07-12T01:47:32;2.72;;;2.53;;
14982;SDS011;7587;51.494;11.930;2022-07-12T01:49:59;3.15;;;2.53;;
14982;SDS011;7587;51.494;11.930;2022-07-12T01:52:26;2.53;;;2.30;;
14982;SDS011;7587;51.494;11.930;2022-07-12T01:54:53;2.95;;;2.65;;
14982;SDS011;7587;51.494;11.930;2022-07-12T01:57:21;2.25;;;2.15;;
14982;SDS011;7587;51.494;11.930;2022-07-12T01:59:47;3.00;;;2.70;;
14982;SDS011;7587;51.494;11.930;2022-07-12T02:02:14;3.03;;;2.67;;
14982;SDS011;7587;51.494;11.930;2022-07-12T02:04:40;5.57;;;2.75;;
14982;SDS011;7587;51.494;11.930;2022-07-12T02:07:07;3.10;;;2.80;;
14982;SDS011;7587;51.494;11.930;2022-07-12T02:09:33;2.97;;;2.70;;
14982;SDS011;7587;51.494;11.930;2022-07-12T02:12:00;4.15;;;2.90;;
14982;SDS011;7587;51.494;11.930;2022-07-12T02:14:28;3.13;;;2.65;;
14982;SDS011;7587;51.494;11.930;2022-07-12T02:16:54;3.13;;;2.70;;
14982;SDS011;7587;51.494;11.930;2022-07-12T02:19:20;2.88;;;2.65;;
14982;SDS011;7587;51.494;11.930;2022-07-12T02:21:47;4.07;;;2.92;;
14982;SDS011;7587;51.494;11.930;2022-07-12T02:24:13;2.78;;;2.58;;
14982;SDS011;7587;51.494;11.930;2022-07-12T02:26:40;2.78;;;2.58;;
14982;SDS011;7587;51.494;11.930;2022-07-12T02:29:08;3.05;;;2.75;;
14982;SDS011;7587;51.494;11.930;2022-07-12T02:31:36;3.10;;;2.80;;
14982;SDS011;7587;51.494;11.930;2022-07-12T02:34:02;2.83;;;2.63;;
14982;SDS011;7587;51.494;11.930;2022-07-12T02:36:29;2.83;;;2.63;;
14982;SDS011;7587;51.494;11.930;2022-07-12T02:38:55;3.25;;;2.80;;
14982;SDS011;7587;51.494;11.930;2022-07-12T02:41:22;3.00;;;2.80;;
14982;SDS011;7587;51.494;11.930;2022-07-12T02:43:49;3.25;;;2.90;;
14982;SDS011;7587;51.494;11.930;2022-07-12T02:46:16;3.70;;;3.40;;
14982;SDS011;7587;51.494;11.930;2022-07-12T02:48:44;3.00;;;2.80;;
14982;SDS011;7587;51.494;11.930;2022-07-12T02:51:10;4.53;;;2.30;;
14982;SDS011;7587;51.494;11.930;2022-07-12T02:53:37;3.63;;;3.00;;
14982;SDS011;7587;51.494;11.930;2022-07-12T02:56:04;3.13;;;2.83;;
14982;SDS011;7587;51.494;11.930;2022-07-12T02:58:31;3.10;;;2.90;;
14982;SDS011;7587;51.494;11.930;2022-07-12T03:00:57;3.22;;;2.92;;
14982;SDS011;7587;51.494;11.930;2022-07-12T03:03:23;4.32;;;2.80;;
14982;SDS011;7587;51.494;11.930;2022-07-12T03:05:51;3.13;;;2.80;;
14982;SDS011;7587;51.494;11.930;2022-07-12T03:08:18;3.40;;;3.10;;
14982;SDS011;7587;51.494;11.930;2022-07-12T03:10:44;3.15;;;2.85;;
14982;SDS011;7587;51.494;11.930;2022-07-12T03:13:11;3.30;;;2.95;;
14982;SDS011;7587;51.494;11.930;2022-07-12T03:15:37;3.75;;;3.35;;
14982;SDS011;7587;51.494;11.930;2022-07-12T03:18:04;5.03;;;3.00;;
14982;SDS011;7587;51.494;11.930;2022-07-12T03:20:30;4.60;;;3.08;;
14982;SDS011;7587;51.494;11.930;2022-07-12T03:22:58;4.07;;;3.20;;
14982;SDS011;7587;51.494;11.930;2022-07-12T03:25:24;7.57;;;4.30;;
14982;SDS011;7587;51.494;11.930;2022-07-12T03:27:51;3.50;;;3.20;;
14982;SDS011;7587;51.494;11.930;2022-07-12T03:33:20;3.95;;;3.55;;
14982;SDS011;7587;51.494;11.930;2022-07-12T03:35:47;4.13;;;3.75;;
14982;SDS011;7587;51.494;11.930;2022-07-12T03:38:15;3.47;;;3.17;;
14982;SDS011;7587;51.494;11.930;2022-07-12T03:40:41;3.90;;;3.60;;
14982;SDS011;7587;51.494;11.930;2022-07-12T03:43:09;3.97;;;3.60;;
14982;SDS011;7587;51.494;11.930;2022-07-12T03:45:35;4.57;;;3.80;;
14982;SDS011;7587;51.494;11.930;2022-07-12T03:48:01;4.07;;;3.40;;
14982;SDS011;7587;51.494;11.930;2022-07-12T03:50:28;4.53;;;4.00;;
14982;SDS011;7587;51.494;11.930;2022-07-12T03:52:54;3.55;;;3.25;;
14982;SDS011;7587;51.494;11.930;2022-07-12T03:55:22;6.47;;;3.90;;
14982;SDS011;7587;51.494;11.930;2022-07-12T03:57:49;3.80;;;3.50;;
14982;SDS011;7587;51.494;11.930;2022-07-12T04:00:16;4.88;;;3.72;;
14982;SDS011;7587;51.494;11.930;2022-07-12T04:02:42;4.20;;;3.42;;
14982;SDS011;7587;51.494;11.930;2022-07-12T04:05:09;4.10;;;3.80;;
14982;SDS011;7587;51.494;11.930;2022-07-12T04:07:36;4.57;;;4.05;;
14982;SDS011;7587;51.494;11.930;2022-07-12T04:10:03;5.00;;;3.65;;
14982;SDS011;7587;51.494;11.930;2022-07-12T04:12:32;4.43;;;3.50;;
14982;SDS011;7587;51.494;11.930;2022-07-12T04:14:58;4.53;;;3.55;;
14982;SDS011;7587;51.494;11.930;2022-07-12T04:17:25;5.28;;;3.95;;
14982;SDS011;7587;51.494;11.930;2022-07-12T04:19:51;4.18;;;3.78;;
14982;SDS011;7587;51.494;11.930;2022-07-12T04:22:18;4.22;;;3.35;;
14982;SDS011;7587;51.494;11.930;2022-07-12T04:24:44;4.35;;;3.90;;
14982;SDS011;7587;51.494;11.930;2022-07-12T04:27:11;4.28;;;3.40;;
14982;SDS011;7587;51.494;11.930;2022-07-12T04:29:38;4.55;;;3.50;;
14982;SDS011;7587;51.494;11.930;2022-07-12T04:32:05;5.03;;;3.60;;
14982;SDS011;7587;51.494;11.930;2022-07-12T04:34:32;5.00;;;3.33;;
14982;SDS011;7587;51.494;11.930;2022-07-12T04:36:58;3.67;;;3.20;;
14982;SDS011;7587;51.494;11.930;2022-07-12T04:39:25;3.50;;;3.20;;
14982;SDS011;7587;51.494;11.930;2022-07-12T04:41:51;3.58;;;3.28;;
14982;SDS011;7587;51.494;11.930;2022-07-12T04:44:18;3.17;;;2.88;;
14982;SDS011;7587;51.494;11.930;2022-07-12T04:46:45;3.10;;;2.80;;
14982;SDS011;7587;51.494;11.930;2022-07-12T04:49:12;3.20;;;3.00;;
14982;SDS011;7587;51.494;11.930;2022-07-12T04:51:39;3.10;;;2.80;;
14982;SDS011;7587;51.494;11.930;2022-07-12T04:54:05;3.33;;;3.03;;
14982;SDS011;7587;51.494;11.930;2022-07-12T04:56:32;3.53;;;3.00;;
14982;SDS011;7587;51.494;11.930;2022-07-12T04:59:00;3.65;;;2.95;;
14982;SDS011;7587;51.494;11.930;2022-07-12T05:01:27;3.47;;;3.08;;
14982;SDS011;7587;51.494;11.930;2022-07-12T05:03:55;3.17;;;2.92;;
14982;SDS011;7587;51.494;11.930;2022-07-12T05:06:24;3.10;;;2.90;;
14982;SDS011;7587;51.494;11.930;2022-07-12T05:08:51;2.72;;;2.53;;
14982;SDS011;7587;51.494;11.930;2022-07-12T05:11:17;3.67;;;2.88;;
14982;SDS011;7587;51.494;11.930;2022-07-12T05:13:44;3.97;;;2.85;;
14982;SDS011;7587;51.494;11.930;2022-07-12T05:16:11;3.75;;;3.10;;
14982;SDS011;7587;51.494;11.930;2022-07-12T05:18:37;2.85;;;2.65;;
14982;SDS011;7587;51.494;11.930;2022-07-12T05:21:05;3.70;;;2.63;;
14982;SDS011;7587;51.494;11.930;2022-07-12T05:23:32;2.90;;;2.70;;
14982;SDS011;7587;51.494;11.930;2022-07-12T05:25:58;3.00;;;2.55;;
14982;SDS011;7587;51.494;11.930;2022-07-12T05:28:25;3.40;;;2.70;;
14982;SDS011;7587;51.494;11.930;2022-07-12T05:30:52;2.63;;;2.38;;
14982;SDS011;7587;51.494;11.930;2022-07-12T05:33:18;3.33;;;3.03;;
14982;SDS011;7587;51.494;11.930;2022-07-12T05:35:45;2.58;;;2.38;;
14982;SDS011;7587;51.494;11.930;2022-07-12T05:38:13;2.67;;;2.40;;
14982;SDS011;7587;51.494;11.930;2022-07-12T05:40:39;2.83;;;2.60;;
14982;SDS011;7587;51.494;11.930;2022-07-12T05:43:05;2.60;;;2.40;;
14982;SDS011;7587;51.494;11.930;2022-07-12T05:45:32;3.65;;;2.22;;
14982;SDS011;7587;51.494;11.930;2022-07-12T05:47:58;3.55;;;2.40;;
14982;SDS011;7587;51.494;11.930;2022-07-12T05:50:25;3.08;;;2.88;;
14982;SDS011;7587;51.494;11.930;2022-07-12T05:52:51;3.05;;;2.75;;
14982;SDS011;7587;51.494;11.930;2022-07-12T05:55:37;4.10;;;2.58;;
14982;SDS011;7587;51.494;11.930;2022-07-12T05:58:03;3.03;;;2.70;;
14982;SDS011;7587;51.494;11.930;2022-07-12T06:00:30;2.38;;;2.17;;
14982;SDS011;7587;51.494;11.930;2022-07-12T06:02:57;2.60;;;2.40;;
14982;SDS011;7587;51.494;11.930;2022-07-12T06:05:24;3.42;;;2.28;;
14982;SDS011;7587;51.494;11.930;2022-07-12T06:07:50;3.97;;;2.33;;
14982;SDS011;7587;51.494;11.930;2022-07-12T06:10:17;3.22;;;2.55;;
14982;SDS011;7587;51.494;11.930;2022-07-12T06:12:45;2.80;;;2.60;;
14982;SDS011;7587;51.494;11.930;2022-07-12T06:15:11;3.28;;;2.40;;
14982;SDS011;7587;51.494;11.930;2022-07-12T06:17:38;2.72;;;2.50;;
14982;SDS011;7587;51.494;11.930;2022-07-12T06:20:06;2.58;;;2.00;;
14982;SDS011;7587;51.494;11.930;2022-07-12T06:22:33;3.75;;;2.70;;
14982;SDS011;7587;51.494;11.930;2022-07-12T06:24:59;3.63;;;2.10;;
14982;SDS011;7587;51.494;11.930;2022-07-12T06:27:26;2.42;;;2.03;;
14982;SDS011;7587;51.494;11.930;2022-07-12T06:29:54;2.92;;;2.20;;
14982;SDS011;7587;51.494;11.930;2022-07-12T06:32:20;2.58;;;2.38;;
14982;SDS011;7587;51.494;11.930;2022-07-12T06:34:47;2.30;;;2.10;;
14982;SDS011;7587;51.494;11.930;2022-07-12T06:37:13;3.78;;;1.98;;
14982;SDS011;7587;51.494;11.930;2022-07-12T06:39:40;2.95;;;2.00;;
14982;SDS011;7587;51.494;11.930;2022-07-12T06:42:06;2.10;;;1.80;;
14982;SDS011;7587;51.494;11.930;2022-07-12T06:44:33;2.47;;;1.70;;
14982;SDS011;7587;51.494;11.930;2022-07-12T06:47:02;2.60;;;2.28;;
14982;SDS011;7587;51.494;11.930;2022-07-12T06:49:29;2.80;;;1.92;;
14982;SDS011;7587;51.494;11.930;2022-07-12T06:51:55;1.73;;;1.63;;
14982;SDS011;7587;51.494;11.930;2022-07-12T06:54:22;1.98;;;1.88;;
14982;SDS011;7587;51.494;11.930;2022-07-12T06:56:48;2.22;;;2.13;;
14982;SDS011;7587;51.494;11.930;2022-07-12T07:02:11;1.73;;;1.58;;
14982;SDS011;7587;51.494;11.930;2022-07-12T07:04:37;2.85;;;1.83;;
14982;SDS011;7587;51.494;11.930;2022-07-12T07:07:04;2.05;;;1.67;;
14982;SDS011;7587;51.494;11.930;2022-07-12T07:09:30;1.85;;;1.67;;
14982;SDS011;7587;51.494;11.930;2022-07-12T07:11:57;3.30;;;1.80;;
14982;SDS011;7587;51.494;11.930;2022-07-12T07:14:29;3.75;;;1.90;;
14982;SDS011;7587;51.494;11.930;2022-07-12T07:16:56;2.95;;;1.60;;
14982;SDS011;7587;51.494;11.930;2022-07-12T07:19:24;2.65;;;1.50;;
14982;SDS011;7587;51.494;11.930;2022-07-12T07:21:51;2.55;;;1.50;;
14982;SDS011;7587;51.494;11.930;2022-07-12T07:24:19;1.65;;;1.38;;
14982;SDS011;7587;51.494;11.930;2022-07-12T07:26:45;1.50;;;1.30;;
14982;SDS011;7587;51.494;11.930;2022-07-12T07:29:12;1.50;;;1.10;;
14982;SDS011;7587;51.494;11.930;2022-07-12T07:31:56;1.95;;;1.20;;
14982;SDS011;7587;51.494;11.930;2022-07-12T07:34:24;4.75;;;2.00;;
14982;SDS011;7587;51.494;11.930;2022-07-12T07:36:51;1.50;;;1.40;;
14982;SDS011;7587;51.494;11.930;2022-07-12T07:39:18;3.38;;;1.60;;
14982;SDS011;7587;51.494;11.930;2022-07-12T07:41:44;1.60;;;1.50;;
14982;SDS011;7587;51.494;11.930;2022-07-12T07:44:11;2.90;;;1.70;;
14982;SDS011;7587;51.494;11.930;2022-07-12T07:46:37;1.77;;;1.30;;
14982;SDS011;7587;51.494;11.930;2022-07-12T07:49:03;3.85;;;1.48;;
14982;SDS011;7587;51.494;11.930;2022-07-12T07:51:34;1.65;;;1.20;;
14982;SDS011;7587;51.494;11.930;2022-07-12T07:54:00;4.57;;;1.30;;
14982;SDS011;7587;51.494;11.930;2022-07-12T07:56:27;1.13;;;1.02;;
14982;SDS011;7587;51.494;11.930;2022-07-12T07:58:54;1.58;;;1.08;;
14982;SDS011;7587;51.494;11.930;2022-07-12T08:01:20;1.45;;;1.30;;
14982;SDS011;7587;51.494;11.930;2022-07-12T08:04:07;2.25;;;1.20;;
14982;SDS011;7587;51.494;11.930;2022-07-12T08:06:35;1.27;;;1.17;;
14982;SDS011;7587;51.494;11.930;2022-07-12T08:09:02;1.92;;;1.25;;
14982;SDS011;7587;51.494;11.930;2022-07-12T08:11:29;2.45;;;1.42;;
14982;SDS011;7587;51.494;11.930;2022-07-12T08:13:55;2.90;;;1.42;;
14982;SDS011;7587;51.494;11.930;2022-07-12T08:16:22;2.65;;;0.98;;
14982;SDS011;7587;51.494;11.930;2022-07-12T08:19:17;1.95;;;1.38;;
14982;SDS011;7587;51.494;11.930;2022-07-12T08:21:45;1.80;;;1.00;;
14982;SDS011;7587;51.494;11.930;2022-07-12T08:24:11;1.90;;;0.77;;
14982;SDS011;7587;51.494;11.930;2022-07-12T08:26:37;2.58;;;1.50;;
14982;SDS011;7587;51.494;11.930;2022-07-12T08:29:11;1.00;;;0.90;;
14982;SDS011;7587;51.494;11.930;2022-07-12T08:32:06;2.20;;;0.70;;
14982;SDS011;7587;51.494;11.930;2022-07-12T08:34:38;2.97;;;0.98;;
14982;SDS011;7587;51.494;11.930;2022-07-12T08:37:06;1.50;;;0.93;;
14982;SDS011;7587;51.494;11.930;2022-07-12T08:39:33;2.00;;;1.25;;
14982;SDS011;7587;51.494;11.930;2022-07-12T08:41:59;1.65;;;1.10;;
14982;SDS011;7587;51.494;11.930;2022-07-12T08:44:26;3.65;;;1.30;;
14982;SDS011;7587;51.494;11.930;2022-07-12T08:46:52;1.63;;;1.13;;
14982;SDS011;7587;51.494;11.930;2022-07-12T08:49:18;2.55;;;1.05;;
14982;SDS011;7587;51.494;11.930;2022-07-12T08:51:46;0.80;;;0.80;;
14982;SDS011;7587;51.494;11.930;2022-07-12T08:54:14;1.30;;;1.00;;
14982;SDS011;7587;51.494;11.930;2022-07-12T08:56:42;1.27;;;0.90;;
14982;SDS011;7587;51.494;11.930;2022-07-12T08:59:10;3.28;;;1.00;;
14982;SDS011;7587;51.494;11.930;2022-07-12T09:01:43;2.85;;;0.93;;
14982;SDS011;7587;51.494;11.930;2022-07-12T09:04:13;1.95;;;0.80;;
14982;SDS011;7587;51.494;11.930;2022-07-12T09:06:39;2.30;;;0.93;;
14982;SDS011;7587;51.494;11.930;2022-07-12T09:09:06;1.38;;;1.10;;
14982;SDS011;7587;51.494;11.930;2022-07-12T09:11:36;1.85;;;0.60;;
14982;SDS011;7587;51.494;11.930;2022-07-12T09:14:03;1.55;;;0.90;;
14982;SDS011;7587;51.494;11.930;2022-07-12T09:16:29;1.27;;;0.65;;
14982;SDS011;7587;51.494;11.930;2022-07-12T09:19:11;0.93;;;0.70;;
14982;SDS011;7587;51.494;11.930;2022-07-12T09:21:45;1.10;;;0.60;;
14982;SDS011;7587;51.494;11.930;2022-07-12T09:24:12;1.85;;;0.70;;
14982;SDS011;7587;51.494;11.930;2022-07-12T09:26:40;0.60;;;0.57;;
14982;SDS011;7587;51.494;11.930;2022-07-12T09:29:07;1.67;;;0.77;;
14982;SDS011;7587;51.494;11.930;2022-07-12T09:31:38;0.85;;;0.50;;
14982;SDS011;7587;51.494;11.930;2022-07-12T09:34:29;0.75;;;0.57;;
14982;SDS011;7587;51.494;11.930;2022-07-12T09:37:28;0.55;;;0.55;;
14982;SDS011;7587;51.494;11.930;2022-07-12T09:39:55;0.60;;;0.60;;
14982;SDS011;7587;51.494;11.930;2022-07-12T09:42:22;1.85;;;0.70;;
14982;SDS011;7587;51.494;11.930;2022-07-12T09:44:49;2.05;;;0.75;;
14982;SDS011;7587;51.494;11.930;2022-07-12T09:47:16;1.10;;;0.60;;
14982;SDS011;7587;51.494;11.930;2022-07-12T09:49:43;1.63;;;0.82;;
14982;SDS011;7587;51.494;11.930;2022-07-12T09:52:10;1.13;;;0.60;;
14982;SDS011;7587;51.494;11.930;2022-07-12T09:54:38;0.90;;;0.60;;
14982;SDS011;7587;51.494;11.930;2022-07-12T09:57:08;1.95;;;1.17;;
14982;SDS011;7587;51.494;11.930;2022-07-12T09:59:41;1.65;;;0.50;;
14982;SDS011;7587;51.494;11.930;2022-07-12T10:02:07;1.52;;;0.63;;
14982;SDS011;7587;51.494;11.930;2022-07-12T10:04:35;1.08;;;0.57;;
14982;SDS011;7587;51.494;11.930;2022-07-12T10:07:02;2.20;;;0.68;;
14982;SDS011;7587;51.494;11.930;2022-07-12T10:09:30;0.63;;;0.63;;
14982;SDS011;7587;51.494;11.930;2022-07-12T10:11:56;2.60;;;0.70;;
14982;SDS011;7587;51.494;11.930;2022-07-12T10:14:23;0.95;;;0.70;;
14982;SDS011;7587;51.494;11.930;2022-07-12T10:16:51;1.75;;;0.73;;
14982;SDS011;7587;51.494;11.930;2022-07-12T10:19:22;0.45;;;0.45;;
14982;SDS011;7587;51.494;11.930;2022-07-12T10:21:50;1.75;;;0.60;;
14982;SDS011;7587;51.494;11.930;2022-07-12T10:33:03;1.30;;;0.60;;
14982;SDS011;7587;51.494;11.930;2022-07-12T10:35:40;0.40;;;0.40;;
14982;SDS011;7587;51.494;11.930;2022-07-12T10:38:24;2.88;;;0.55;;
14982;SDS011;7587;51.494;11.930;2022-07-12T10:40:50;1.58;;;0.50;;
14982;SDS011;7587;51.494;11.930;2022-07-12T10:43:18;0.70;;;0.70;;
14982;SDS011;7587;51.494;11.930;2022-07-12T10:46:18;0.70;;;0.70;;
14982;SDS011;7587;51.494;11.930;2022-07-12T10:48:50;2.55;;;0.80;;
14982;SDS011;7587;51.494;11.930;2022-07-12T10:51:17;1.95;;;0.60;;
14982;SDS011;7587;51.494;11.930;2022-07-12T10:53:45;0.82;;;0.45;;
14982;SDS011;7587;51.494;11.930;2022-07-12T10:56:15;0.30;;;0.30;;
14982;SDS011;7587;51.494;11.930;2022-07-12T10:58:46;1.05;;;0.45;;
14982;SDS011;7587;51.494;11.930;2022-07-12T11:01:14;0.68;;;0.50;;
14982;SDS011;7587;51.494;11.930;2022-07-12T11:03:42;3.95;;;0.80;;
14982;SDS011;7587;51.494;11.930;2022-07-12T11:06:12;1.35;;;0.60;;
14982;SDS011;7587;51.494;11.930;2022-07-12T11:08:46;2.10;;;0.85;;
14982;SDS011;7587;51.494;11.930;2022-07-12T11:11:16;1.60;;;0.65;;
14982;SDS011;7587;51.494;11.930;2022-07-12T11:13:43;0.40;;;0.40;;
14982;SDS011;7587;51.494;11.930;2022-07-12T11:16:42;1.20;;;0.60;;
14982;SDS011;7587;51.494;11.930;2022-07-12T11:19:23;0.55;;;0.50;;
14982;SDS011;7587;51.494;11.930;2022-07-12T11:21:51;0.60;;;0.50;;
14982;SDS011;7587;51.494;11.930;2022-07-12T11:24:21;0.68;;;0.60;;
14982;SDS011;7587;51.494;11.930;2022-07-12T11:26:48;0.50;;;0.40;;
14982;SDS011;7587;51.494;11.930;2022-07-12T11:29:15;0.45;;;0.45;;
14982;SDS011;7587;51.494;11.930;2022-07-12T11:31:48;1.77;;;0.65;;
14982;SDS011;7587;51.494;11.930;2022-07-12T11:34:19;0.60;;;0.50;;
14982;SDS011;7587;51.494;11.930;2022-07-12T11:36:47;0.50;;;0.50;;
14982;SDS011;7587;51.494;11.930;2022-07-12T11:39:14;1.05;;;0.60;;
14982;SDS011;7587;51.494;11.930;2022-07-12T11:41:42;2.85;;;0.65;;
14982;SDS011;7587;51.494;11.930;2022-07-12T11:44:20;1.25;;;0.50;;
14982;SDS011;7587;51.494;11.930;2022-07-12T11:46:48;1.88;;;0.60;;
14982;SDS011;7587;51.494;11.930;2022-07-12T11:49:15;1.63;;;0.50;;
14982;SDS011;7587;51.494;11.930;2022-07-12T11:51:42;0.95;;;0.65;;
14982;SDS011;7587;51.494;11.930;2022-07-12T11:54:10;3.90;;;1.02;;
14982;SDS011;7587;51.494;11.930;2022-07-12T11:56:36;0.60;;;0.60;;
14982;SDS011;7587;51.494;11.930;2022-07-12T11:59:03;0.75;;;0.60;;
14982;SDS011;7587;51.494;11.930;2022-07-12T12:01:29;1.02;;;0.70;;
14982;SDS011;7587;51.494;11.930;2022-07-12T12:03:56;0.88;;;0.63;;
14982;SDS011;7587;51.494;11.930;2022-07-12T12:06:41;0.77;;;0.60;;
14982;SDS011;7587;51.494;11.930;2022-07-12T12:09:27;1.23;;;0.63;;
14982;SDS011;7587;51.494;11.930;2022-07-12T12:12:24;0.93;;;0.70;;
14982;SDS011;7587;51.494;11.930;2022-07-12T12:15:12;5.82;;;1.05;;
14982;SDS011;7587;51.494;11.930;2022-07-12T12:17:58;0.65;;;0.65;;
14982;SDS011;7587;51.494;11.930;2022-07-12T12:20:43;2.38;;;0.80;;
14982;SDS011;7587;51.494;11.930;2022-07-12T12:23:29;1.00;;;0.80;;
14982;SDS011;7587;51.494;11.930;2022-07-12T12:26:15;1.95;;;0.80;;
14982;SDS011;7587;51.494;11.930;2022-07-12T12:29:01;0.80;;;0.80;;
14982;SDS011;7587;51.494;11.930;2022-07-12T12:31:55;2.85;;;0.80;;
14982;SDS011;7587;51.494;11.930;2022-07-12T12:37:49;1.60;;;0.63;;
14982;SDS011;7587;51.494;11.930;2022-07-12T12:40:36;0.88;;;0.88;;
14982;SDS011;7587;51.494;11.930;2022-07-12T12:43:23;5.57;;;1.02;;
14982;SDS011;7587;51.494;11.930;2022-07-12T12:46:10;0.73;;;0.73;;
14982;SDS011;7587;51.494;11.930;2022-07-12T12:49:12;0.88;;;0.88;;
14982;SDS011;7587;51.494;11.930;2022-07-12T12:52:09;0.77;;;0.77;;
14982;SDS011;7587;51.494;11.930;2022-07-12T12:54:55;0.70;;;0.70;;
14982;SDS011;7587;51.494;11.930;2022-07-12T12:57:40;1.98;;;0.63;;
14982;SDS011;7587;51.494;11.930;2022-07-12T13:00:27;2.95;;;1.10;;
14982;SDS011;7587;51.494;11.930;2022-07-12T13:03:14;1.55;;;1.38;;
14982;SDS011;7587;51.494;11.930;2022-07-12T13:05:59;1.27;;;0.80;;
14982;SDS011;7587;51.494;11.930;2022-07-12T13:08:45;1.88;;;0.93;;
14982;SDS011;7587;51.494;11.930;2022-07-12T13:11:30;1.85;;;0.60;;
14982;SDS011;7587;51.494;11.930;2022-07-12T13:14:15;0.77;;;0.77;;
14982;SDS011;7587;51.494;11.930;2022-07-12T13:17:01;0.80;;;0.80;;
14982;SDS011;7587;51.494;11.930;2022-07-12T13:19:46;1.05;;;0.70;;
14982;SDS011;7587;51.494;11.930;2022-07-12T13:22:32;2.70;;;0.73;;
14982;SDS011;7587;51.494;11.930;2022-07-12T13:25:17;1.90;;;0.70;;
14982;SDS011;7587;51.494;11.930;2022-07-12T13:28:01;1.95;;;0.40;;
14982;SDS011;7587;51.494;11.930;2022-07-12T13:30:47;2.50;;;0.52;;
14982;SDS011;7587;51.494;11.930;2022-07-12T13:33:33;0.57;;;0.57;;
14982;SDS011;7587;51.494;11.930;2022-07-12T13:36:18;0.60;;;0.50;;
14982;SDS011;7587;51.494;11.930;2022-07-12T13:39:03;0.40;;;0.40;;
14982;SDS011;7587;51.494;11.930;2022-07-12T13:42:05;0.80;;;0.50;;
14982;SDS011;7587;51.494;11.930;2022-07-12T13:44:51;1.40;;;0.70;;
14982;SDS011;7587;51.494;11.930;2022-07-12T13:47:37;0.60;;;0.60;;
14982;SDS011;7587;51.494;11.930;2022-07-12T13:50:23;0.60;;;0.60;;
14982;SDS011;7587;51.494;11.930;2022-07-12T13:53:08;0.85;;;0.55;;
14982;SDS011;7587;51.494;11.930;2022-07-12T13:55:54;0.77;;;0.65;;
14982;SDS011;7587;51.494;11.930;2022-07-12T13:58:39;0.50;;;0.43;;
14982;SDS011;7587;51.494;11.930;2022-07-12T14:01:24;1.50;;;0.75;;
14982;SDS011;7587;51.494;11.930;2022-07-12T14:04:09;0.65;;;0.47;;
14982;SDS011;7587;51.494;11.930;2022-07-12T14:06:56;0.40;;;0.40;;
14982;SDS011;7587;51.494;11.930;2022-07-12T14:09:41;0.50;;;0.50;;
14982;SDS011;7587;51.494;11.930;2022-07-12T14:12:27;0.50;;;0.50;;
14982;SDS011;7587;51.494;11.930;2022-07-12T14:15:12;0.70;;;0.47;;
14982;SDS011;7587;51.494;11.930;2022-07-12T14:18:03;1.40;;;0.70;;
14982;SDS011;7587;51.494;11.930;2022-07-12T14:20:48;1.27;;;0.70;;
14982;SDS011;7587;51.494;11.930;2022-07-12T14:23:35;0.40;;;0.40;;
14982;SDS011;7587;51.494;11.930;2022-07-12T14:26:20;1.42;;;0.80;;
14982;SDS011;7587;51.494;11.930;2022-07-12T14:29:05;2.25;;;0.80;;
14982;SDS011;7587;51.494;11.930;2022-07-12T14:31:50;2.28;;;0.60;;
14982;SDS011;7587;51.494;11.930;2022-07-12T14:34:35;2.28;;;0.73;;
14982;SDS011;7587;51.494;11.930;2022-07-12T14:37:20;0.82;;;0.77;;
14982;SDS011;7587;51.494;11.930;2022-07-12T14:40:08;2.83;;;0.80;;
14982;SDS011;7587;51.494;11.930;2022-07-12T14:42:53;0.40;;;0.40;;
14982;SDS011;7587;51.494;11.930;2022-07-12T14:45:37;0.80;;;0.77;;
14982;SDS011;7587;51.494;11.930;2022-07-12T14:48:22;0.57;;;0.52;;
14982;SDS011;7587;51.494;11.930;2022-07-12T14:51:07;0.60;;;0.50;;
14982;SDS011;7587;51.494;11.930;2022-07-12T14:53:52;0.80;;;0.75;;
14982;SDS011;7587;51.494;11.930;2022-07-12T14:56:39;1.65;;;0.60;;
14982;SDS011;7587;51.494;11.930;2022-07-12T14:59:24;0.50;;;0.50;;
14982;SDS011;7587;51.494;11.930;2022-07-12T15:02:09;0.50;;;0.50;;
14982;SDS011;7587;51.494;11.930;2022-07-12T15:04:54;0.85;;;0.70;;
14982;SDS011;7587;51.494;11.930;2022-07-12T15:07:39;1.50;;;0.70;;
14982;SDS011;7587;51.494;11.930;2022-07-12T15:10:24;2.28;;;0.73;;
14982;SDS011;7587;51.494;11.930;2022-07-12T15:13:10;1.70;;;0.60;;
14982;SDS011;7587;51.494;11.930;2022-07-12T15:15:55;0.70;;;0.70;;
14982;SDS011;7587;51.494;11.930;2022-07-12T15:18:40;0.40;;;0.40;;
14982;SDS011;7587;51.494;11.930;2022-07-12T15:21:25;1.70;;;0.40;;
14982;SDS011;7587;51.494;11.930;2022-07-12T15:24:10;0.60;;;0.60;;
14982;SDS011;7587;51.494;11.930;2022-07-12T15:26:55;0.50;;;0.40;;
14982;SDS011;7587;51.494;11.930;2022-07-12T15:29:42;0.57;;;0.57;;
14982;SDS011;7587;51.494;11.930;2022-07-12T15:32:27;2.13;;;0.52;;
14982;SDS011;7587;51.494;11.930;2022-07-12T15:35:12;2.10;;;0.50;;